Time;durP1;ratioP1;P1;durP2;ratioP2;P2;SDS_P1;SDS_P2;PMS_P1;PMS_P2;Temp;Humidity;BMP_temperature;BMP_pressure;BME280_temperature;BME280_humidity;BME280_pressure;Samples;Min_cycle;Max_cycle;Signal;HPM_P1;HPM_P2
2023/08/09 00:00:53;;;;;;;4.22;3.72;;;;;;;;;;5079717;28;20890;-60
2023/08/09 00:03:22;;;;;;;4.30;3.80;;;;;;;;;;5078938;28;20425;-60
2023/08/09 00:05:49;;;;;;;5.88;4.00;;;;;;;;;;5076429;28;20543;-59
2023/08/09 00:08:16;;;;;;;6.03;4.43;;;;;;;;;;5079118;28;20939;-60
2023/08/09 00:10:43;;;;;;;4.72;4.22;;;;;;;;;;5078884;28;20434;-60
2023/08/09 00:13:10;;;;;;;4.82;3.75;;;;;;;;;;5077589;28;20589;-59
2023/08/09 00:15:37;;;;;;;2.55;1.40;;;;;;;;;;5082923;28;20422;-59
2023/08/09 00:18:04;;;;;;;2.80;1.40;;;;;;;;;;5079663;28;20774;-60
2023/08/09 00:20:33;;;;;;;1.43;0.83;;;;;;;;;;5084407;28;20480;-60
2023/08/09 00:23:00;;;;;;;1.45;1.02;;;;;;;;;;5075027;28;20480;-60
2023/08/09 00:25:27;;;;;;;1.52;0.88;;;;;;;;;;5079382;28;20741;-60
2023/08/09 00:27:54;;;;;;;1.45;1.15;;;;;;;;;;5075870;28;20484;-60
2023/08/09 00:30:23;;;;;;;1.73;1.23;;;;;;;;;;5078884;28;20441;-60
2023/08/09 00:32:50;;;;;;;3.15;1.38;;;;;;;;;;5078049;28;20526;-60
2023/08/09 00:35:17;;;;;;;3.47;1.60;;;;;;;;;;5082794;28;20845;-60
2023/08/09 00:37:45;;;;;;;2.00;1.80;;;;;;;;;;5077497;28;20467;-60
2023/08/09 00:40:12;;;;;;;2.72;2.35;;;;;;;;;;5083205;28;20479;-60
2023/08/09 00:42:39;;;;;;;3.17;2.35;;;;;;;;;;5079418;28;20865;-59
2023/08/09 00:45:07;;;;;;;3.55;2.88;;;;;;;;;;5080362;28;20896;-60
2023/08/09 00:47:34;;;;;;;3.67;2.78;;;;;;;;;;5077637;28;20487;-60
2023/08/09 00:50:02;;;;;;;3.17;2.55;;;;;;;;;;5077894;28;20418;-60
2023/08/09 00:52:29;;;;;;;4.97;2.90;;;;;;;;;;5075039;28;20516;-60
2023/08/09 00:54:58;;;;;;;3.88;2.95;;;;;;;;;;5077873;28;20419;-60
2023/08/09 00:57:25;;;;;;;4.90;3.25;;;;;;;;;;5085532;28;20422;-60
2023/08/09 00:59:52;;;;;;;4.57;3.00;;;;;;;;;;5080818;28;20802;-60
2023/08/09 01:02:19;;;;;;;3.92;3.00;;;;;;;;;;5080693;28;20922;-59
2023/08/09 01:04:46;;;;;;;5.05;3.25;;;;;;;;;;5081860;28;20414;-61
2023/08/09 01:07:15;;;;;;;4.78;3.03;;;;;;;;;;5081974;28;20449;-60
2023/08/09 01:09:45;;;;;;;5.53;3.72;;;;;;;;;;5082485;28;20461;-60
2023/08/09 01:12:19;;;;;;;5.53;3.67;;;;;;;;;;5087433;28;20892;-60
2023/08/09 01:14:48;;;;;;;7.40;3.80;;;;;;;;;;5085226;28;20414;-60
2023/08/09 01:17:16;;;;;;;8.23;3.65;;;;;;;;;;5086350;28;20417;-60
2023/08/09 01:19:47;;;;;;;8.57;4.95;;;;;;;;;;5082851;28;20413;-60
2023/08/09 01:22:17;;;;;;;7.43;4.43;;;;;;;;;;5086496;28;20417;-60
2023/08/09 01:24:46;;;;;;;6.93;4.07;;;;;;;;;;5082733;28;20425;-60
2023/08/09 01:27:13;;;;;;;9.65;5.35;;;;;;;;;;5086978;28;20447;-60
2023/08/09 01:29:40;;;;;;;10.32;5.60;;;;;;;;;;5083632;28;20496;-60
2023/08/09 01:32:08;;;;;;;10.73;5.60;;;;;;;;;;5085995;28;20439;-60
2023/08/09 01:34:35;;;;;;;10.38;5.68;;;;;;;;;;5082277;28;20461;-60
2023/08/09 01:37:10;;;;;;;10.77;5.97;;;;;;;;;;5079979;28;20470;-60
2023/08/09 01:39:39;;;;;;;9.48;5.68;;;;;;;;;;5085405;28;20422;-60
2023/08/09 01:42:08;;;;;;;9.05;6.00;;;;;;;;;;5084386;28;20427;-60
2023/08/09 01:44:37;;;;;;;10.70;6.20;;;;;;;;;;5079122;28;20458;-60
2023/08/09 01:47:04;;;;;;;8.70;5.32;;;;;;;;;;5082817;28;20455;-60
2023/08/09 01:49:31;;;;;;;9.05;5.50;;;;;;;;;;5086899;28;20410;-60
2023/08/09 01:51:58;;;;;;;8.88;5.60;;;;;;;;;;5085887;28;20861;-60
2023/08/09 01:54:25;;;;;;;10.80;5.68;;;;;;;;;;5083421;28;20410;-60
2023/08/09 01:56:52;;;;;;;8.88;5.57;;;;;;;;;;5082002;28;20415;-60
2023/08/09 01:59:23;;;;;;;8.50;5.80;;;;;;;;;;5079498;28;20421;-60
2023/08/09 02:01:50;;;;;;;8.80;6.35;;;;;;;;;;5079546;28;20814;-59
2023/08/09 02:04:17;;;;;;;7.75;6.05;;;;;;;;;;5080995;28;20414;-60
2023/08/09 02:06:44;;;;;;;8.43;5.85;;;;;;;;;;5080217;28;20435;-60
2023/08/09 02:09:10;;;;;;;9.65;6.03;;;;;;;;;;5085031;28;20413;-59
2023/08/09 02:11:37;;;;;;;6.60;4.75;;;;;;;;;;5081329;28;20403;-60
2023/08/09 02:14:05;;;;;;;5.07;4.45;;;;;;;;;;5077084;28;20425;-59
2023/08/09 02:16:33;;;;;;;5.45;4.70;;;;;;;;;;5077978;28;21058;-60
2023/08/09 02:19:01;;;;;;;5.57;4.65;;;;;;;;;;5075014;28;20474;-59
2023/08/09 02:21:28;;;;;;;5.25;4.38;;;;;;;;;;5078578;28;20443;-60
2023/08/09 02:23:55;;;;;;;6.20;4.85;;;;;;;;;;5072162;28;20488;-59
2023/08/09 02:26:22;;;;;;;6.43;5.00;;;;;;;;;;5072664;28;20421;-59
2023/08/09 02:28:49;;;;;;;6.43;5.18;;;;;;;;;;5072689;28;20414;-59
2023/08/09 02:31:19;;;;;;;7.45;5.97;;;;;;;;;;5076206;28;20435;-60
2023/08/09 02:33:47;;;;;;;9.70;6.10;;;;;;;;;;5078309;28;20456;-60
2023/08/09 02:36:14;;;;;;;11.95;7.10;;;;;;;;;;5074035;28;20926;-60
2023/08/09 02:38:41;;;;;;;8.93;6.88;;;;;;;;;;5076873;28;20421;-58
2023/08/09 02:41:09;;;;;;;10.02;7.78;;;;;;;;;;5079131;28;20427;-60
2023/08/09 02:43:37;;;;;;;11.88;8.07;;;;;;;;;;5081021;28;20417;-59
2023/08/09 02:46:05;;;;;;;10.85;8.20;;;;;;;;;;5078213;28;20527;-61
2023/08/09 02:48:32;;;;;;;14.23;8.93;;;;;;;;;;5078308;28;20507;-60
2023/08/09 02:51:01;;;;;;;16.50;9.60;;;;;;;;;;5081516;28;20403;-60
2023/08/09 02:53:28;;;;;;;15.30;10.65;;;;;;;;;;5083397;28;20508;-60
2023/08/09 02:55:55;;;;;;;13.77;9.77;;;;;;;;;;5081790;28;20475;-60
2023/08/09 02:58:22;;;;;;;14.02;9.85;;;;;;;;;;5080527;28;20453;-60
2023/08/09 03:00:49;;;;;;;19.00;11.60;;;;;;;;;;5080142;28;20482;-59
2023/08/09 03:03:16;;;;;;;16.70;11.60;;;;;;;;;;5082992;28;20409;-60
2023/08/09 03:05:43;;;;;;;20.13;12.27;;;;;;;;;;5079182;28;20410;-60
2023/08/09 03:08:12;;;;;;;17.77;11.73;;;;;;;;;;5078234;28;20418;-60
2023/08/09 03:10:39;;;;;;;18.93;11.73;;;;;;;;;;5080155;28;20413;-59
2023/08/09 03:13:06;;;;;;;26.55;13.30;;;;;;;;;;5081983;28;20895;-58
2023/08/09 03:15:34;;;;;;;27.07;14.30;;;;;;;;;;5080289;28;20518;-60
2023/08/09 03:18:01;;;;;;;23.90;13.77;;;;;;;;;;5080426;28;21026;-60
2023/08/09 03:20:29;;;;;;;22.15;13.55;;;;;;;;;;5080952;28;20410;-60
2023/08/09 03:22:58;;;;;;;20.93;13.37;;;;;;;;;;5079156;28;20860;-60
2023/08/09 03:25:27;;;;;;;25.42;13.23;;;;;;;;;;5080947;28;20486;-59
2023/08/09 03:27:54;;;;;;;20.00;12.73;;;;;;;;;;5077606;28;20418;-62
2023/08/09 03:30:20;;;;;;;29.60;14.32;;;;;;;;;;5080600;28;20479;-60
2023/08/09 03:32:48;;;;;;;29.83;15.20;;;;;;;;;;5080450;28;20436;-60
2023/08/09 03:35:15;;;;;;;29.90;14.63;;;;;;;;;;5080905;28;20417;-59
2023/08/09 03:37:42;;;;;;;27.83;14.55;;;;;;;;;;5080048;28;20414;-58
2023/08/09 03:40:12;;;;;;;32.25;14.73;;;;;;;;;;5093512;28;20409;-60
2023/08/09 03:42:41;;;;;;;31.23;15.63;;;;;;;;;;5083300;28;20427;-60
2023/08/09 03:45:08;;;;;;;33.70;15.45;;;;;;;;;;5081168;28;20482;-60
2023/08/09 03:47:36;;;;;;;24.02;13.23;;;;;;;;;;5083829;28;20795;-60
2023/08/09 03:50:04;;;;;;;28.10;14.95;;;;;;;;;;5083377;28;20419;-59
2023/08/09 03:52:31;;;;;;;38.30;17.30;;;;;;;;;;5084663;28;21158;-60
2023/08/09 03:54:58;;;;;;;30.63;16.38;;;;;;;;;;5082489;28;20411;-59
2023/08/09 03:57:27;;;;;;;32.60;16.10;;;;;;;;;;5083611;28;20415;-60
2023/08/09 03:59:55;;;;;;;28.83;15.80;;;;;;;;;;5083289;28;20798;-59
2023/08/09 04:02:22;;;;;;;26.42;15.05;;;;;;;;;;5085029;28;20938;-59
2023/08/09 04:04:49;;;;;;;25.35;14.20;;;;;;;;;;5079935;28;20461;-60
2023/08/09 04:07:16;;;;;;;28.08;14.60;;;;;;;;;;5082407;28;20418;-60
2023/08/09 04:09:43;;;;;;;27.30;14.48;;;;;;;;;;5088450;28;20413;-60
2023/08/09 04:12:10;;;;;;;29.70;15.25;;;;;;;;;;5086486;28;20412;-59
2023/08/09 04:14:37;;;;;;;30.02;16.98;;;;;;;;;;5082738;28;20408;-60
2023/08/09 04:17:06;;;;;;;27.17;17.20;;;;;;;;;;5081180;28;20433;-60
2023/08/09 04:19:33;;;;;;;24.02;15.00;;;;;;;;;;5077008;28;20960;-60
2023/08/09 04:22:00;;;;;;;22.87;15.83;;;;;;;;;;5082179;28;20426;-60
2023/08/09 04:24:28;;;;;;;23.25;16.52;;;;;;;;;;5079571;28;20415;-62
2023/08/09 04:26:55;;;;;;;26.60;17.15;;;;;;;;;;5073452;28;20510;-62
2023/08/09 04:29:22;;;;;;;24.30;17.77;;;;;;;;;;5076279;28;20781;-62
2023/08/09 04:31:49;;;;;;;27.70;18.67;;;;;;;;;;5080186;28;20408;-62
2023/08/09 04:34:17;;;;;;;27.70;19.55;;;;;;;;;;5071022;28;20410;-62
2023/08/09 04:36:45;;;;;;;26.63;20.23;;;;;;;;;;5080338;28;20449;-62
2023/08/09 04:39:13;;;;;;;26.87;19.93;;;;;;;;;;5084084;28;21053;-62
2023/08/09 04:41:40;;;;;;;32.30;21.73;;;;;;;;;;5087049;28;20458;-63
2023/08/09 04:44:07;;;;;;;32.28;22.48;;;;;;;;;;5077215;28;20722;-63
2023/08/09 04:46:34;;;;;;;32.80;22.73;;;;;;;;;;5088255;28;20412;-62
2023/08/09 04:49:03;;;;;;;31.20;22.42;;;;;;;;;;5075746;28;20424;-62
2023/08/09 04:51:31;;;;;;;26.87;19.63;;;;;;;;;;5079285;28;20415;-59
2023/08/09 04:53:59;;;;;;;32.25;22.15;;;;;;;;;;5087543;28;20442;-63
2023/08/09 04:56:26;;;;;;;28.92;20.92;;;;;;;;;;5084868;28;20410;-60
2023/08/09 04:58:53;;;;;;;29.42;21.35;;;;;;;;;;5085759;28;20485;-60
2023/08/09 05:01:20;;;;;;;34.15;23.33;;;;;;;;;;5081598;28;20435;-60
2023/08/09 05:03:47;;;;;;;33.20;23.88;;;;;;;;;;5056686;28;20485;-60
2023/08/09 05:06:14;;;;;;;33.88;23.85;;;;;;;;;;5069742;28;20421;-61
2023/08/09 05:08:44;;;;;;;32.80;23.27;;;;;;;;;;5073289;28;20574;-61
2023/08/09 05:11:11;;;;;;;37.65;25.80;;;;;;;;;;5076758;28;20508;-60
2023/08/09 05:13:38;;;;;;;37.30;26.38;;;;;;;;;;5078873;28;20725;-60
2023/08/09 05:16:05;;;;;;;34.47;24.83;;;;;;;;;;5083627;28;20403;-60
2023/08/09 05:18:32;;;;;;;33.70;25.02;;;;;;;;;;5084613;28;20412;-60
2023/08/09 05:20:59;;;;;;;35.97;24.80;;;;;;;;;;5083222;28;20848;-61
2023/08/09 05:23:26;;;;;;;29.95;22.88;;;;;;;;;;5081969;28;20498;-61
2023/08/09 05:25:54;;;;;;;29.07;22.17;;;;;;;;;;5081712;28;20921;-59
2023/08/09 05:28:21;;;;;;;31.23;23.70;;;;;;;;;;5084565;28;20435;-58
2023/08/09 05:30:48;;;;;;;29.48;22.70;;;;;;;;;;5076525;28;20487;-60
2023/08/09 05:33:15;;;;;;;30.55;23.00;;;;;;;;;;5082228;28;20828;-59
2023/08/09 05:35:42;;;;;;;31.33;23.50;;;;;;;;;;5078660;28;20408;-60
2023/08/09 05:38:09;;;;;;;36.45;25.40;;;;;;;;;;5078401;28;20408;-60
2023/08/09 05:40:37;;;;;;;35.63;25.63;;;;;;;;;;5085339;28;20404;-60
2023/08/09 05:43:05;;;;;;;33.93;25.03;;;;;;;;;;5080941;28;20549;-60
2023/08/09 05:45:32;;;;;;;34.78;25.42;;;;;;;;;;5071379;28;20927;-60
2023/08/09 05:47:59;;;;;;;35.63;25.33;;;;;;;;;;5078189;28;20488;-62
2023/08/09 05:50:26;;;;;;;33.22;24.33;;;;;;;;;;5080344;28;20425;-64
2023/08/09 05:52:53;;;;;;;33.08;23.60;;;;;;;;;;5083768;28;20403;-64
2023/08/09 05:55:21;;;;;;;29.00;22.70;;;;;;;;;;5078160;28;20423;-64
2023/08/09 05:57:51;;;;;;;26.73;20.08;;;;;;;;;;5077171;28;20489;-63
2023/08/09 06:00:19;;;;;;;24.40;19.73;;;;;;;;;;5088296;28;20452;-65
2023/08/09 06:02:48;;;;;;;25.17;19.65;;;;;;;;;;5077449;28;20422;-65
2023/08/09 06:05:18;;;;;;;23.52;18.10;;;;;;;;;;5080004;28;20447;-64
2023/08/09 06:07:45;;;;;;;23.80;17.30;;;;;;;;;;5082042;28;20502;-64
2023/08/09 06:10:12;;;;;;;22.80;17.25;;;;;;;;;;5103579;28;20418;-63
2023/08/09 06:12:39;;;;;;;19.30;16.25;;;;;;;;;;5095947;28;20409;-64
2023/08/09 06:15:07;;;;;;;17.90;15.07;;;;;;;;;;5085310;28;20523;-60
2023/08/09 06:17:35;;;;;;;17.20;15.07;;;;;;;;;;5082680;28;20445;-62
2023/08/09 06:20:04;;;;;;;19.20;15.70;;;;;;;;;;5080477;28;20423;-61
2023/08/09 06:22:31;;;;;;;20.50;17.05;;;;;;;;;;5078700;28;20425;-60
2023/08/09 06:24:58;;;;;;;20.90;16.55;;;;;;;;;;5078802;28;20477;-61
2023/08/09 06:27:25;;;;;;;22.98;17.25;;;;;;;;;;5078822;28;20465;-60
2023/08/09 06:29:52;;;;;;;21.98;16.98;;;;;;;;;;5078764;28;20421;-60
2023/08/09 06:32:19;;;;;;;20.52;16.55;;;;;;;;;;5075242;28;20442;-60
2023/08/09 06:34:47;;;;;;;21.88;16.92;;;;;;;;;;5074975;28;20785;-60
2023/08/09 06:37:14;;;;;;;20.75;16.67;;;;;;;;;;5076562;28;20462;-59
2023/08/09 06:39:41;;;;;;;17.85;14.70;;;;;;;;;;5076269;28;20402;-60
2023/08/09 06:42:11;;;;;;;18.40;14.68;;;;;;;;;;5077265;28;20516;-59
2023/08/09 06:44:38;;;;;;;17.77;14.40;;;;;;;;;;5080173;28;20547;-62
2023/08/09 06:47:06;;;;;;;17.80;14.00;;;;;;;;;;5078620;28;20422;-60
2023/08/09 06:49:33;;;;;;;17.43;14.40;;;;;;;;;;5074850;28;20463;-59
2023/08/09 06:52:01;;;;;;;19.05;14.90;;;;;;;;;;5080119;28;20407;-58
2023/08/09 06:54:29;;;;;;;18.77;14.23;;;;;;;;;;5084848;28;20473;-58
2023/08/09 06:56:56;;;;;;;18.00;14.75;;;;;;;;;;5077783;28;20462;-59
2023/08/09 06:59:23;;;;;;;17.90;13.52;;;;;;;;;;5085043;28;20459;-60
2023/08/09 07:01:50;;;;;;;15.33;13.40;;;;;;;;;;5078097;28;20425;-58
2023/08/09 07:04:17;;;;;;;16.92;13.15;;;;;;;;;;5080406;28;20409;-58
2023/08/09 07:06:45;;;;;;;18.20;14.20;;;;;;;;;;5077444;28;20490;-58
2023/08/09 07:09:13;;;;;;;15.23;12.07;;;;;;;;;;5076346;28;20406;-60
2023/08/09 07:11:40;;;;;;;14.25;11.68;;;;;;;;;;5078912;28;20780;-59
2023/08/09 07:14:07;;;;;;;17.23;12.13;;;;;;;;;;5081564;28;20459;-61
2023/08/09 07:16:34;;;;;;;16.70;13.27;;;;;;;;;;5075755;28;20410;-59
2023/08/09 07:19:02;;;;;;;19.43;13.57;;;;;;;;;;5082880;28;20408;-60
2023/08/09 07:21:29;;;;;;;18.35;13.05;;;;;;;;;;5082363;28;20505;-61
2023/08/09 07:23:56;;;;;;;19.95;12.90;;;;;;;;;;5080565;28;20427;-65
2023/08/09 07:26:24;;;;;;;22.00;13.30;;;;;;;;;;5078505;28;20407;-61
2023/08/09 07:28:52;;;;;;;17.95;13.70;;;;;;;;;;5078196;28;20496;-63
2023/08/09 07:31:20;;;;;;;18.85;13.63;;;;;;;;;;5078734;28;20415;-62
2023/08/09 07:33:47;;;;;;;19.40;12.85;;;;;;;;;;5079549;28;20830;-62
2023/08/09 07:36:14;;;;;;;17.00;12.35;;;;;;;;;;5078731;28;20407;-62
2023/08/09 07:38:41;;;;;;;18.15;12.88;;;;;;;;;;5077081;28;20417;-63
2023/08/09 07:41:09;;;;;;;21.27;13.50;;;;;;;;;;5072922;28;20407;-63
2023/08/09 07:43:38;;;;;;;21.48;14.48;;;;;;;;;;5073768;28;20434;-62
2023/08/09 07:46:06;;;;;;;20.73;13.77;;;;;;;;;;5074732;28;20463;-62
2023/08/09 07:48:33;;;;;;;22.70;13.85;;;;;;;;;;5076963;28;20431;-62
2023/08/09 07:51:00;;;;;;;20.73;13.45;;;;;;;;;;5075296;28;20407;-62
2023/08/09 07:53:27;;;;;;;22.17;14.25;;;;;;;;;;5082553;28;20410;-62
2023/08/09 07:55:54;;;;;;;22.83;14.15;;;;;;;;;;5079952;28;20502;-62
2023/08/09 07:58:21;;;;;;;26.13;15.32;;;;;;;;;;5080774;28;20410;-63
2023/08/09 08:00:50;;;;;;;24.83;14.73;;;;;;;;;;5077190;28;20410;-62
2023/08/09 08:03:17;;;;;;;25.77;15.75;;;;;;;;;;5080074;28;20421;-62
2023/08/09 08:05:44;;;;;;;24.13;15.57;;;;;;;;;;5072808;28;20415;-62
2023/08/09 08:08:11;;;;;;;24.67;15.50;;;;;;;;;;5072181;28;20416;-62
2023/08/09 08:10:38;;;;;;;27.35;17.08;;;;;;;;;;5077681;28;20419;-63
2023/08/09 08:13:05;;;;;;;28.38;16.70;;;;;;;;;;5073588;28;20415;-63
2023/08/09 08:15:32;;;;;;;24.40;15.20;;;;;;;;;;5072848;28;20417;-64
2023/08/09 08:18:01;;;;;;;26.48;15.52;;;;;;;;;;5084592;28;20410;-60
2023/08/09 08:20:28;;;;;;;24.45;15.50;;;;;;;;;;5086544;28;20763;-61
2023/08/09 08:22:55;;;;;;;27.60;15.82;;;;;;;;;;5078346;28;20775;-59
2023/08/09 08:25:22;;;;;;;24.95;15.52;;;;;;;;;;5083150;28;20440;-59
2023/08/09 08:27:49;;;;;;;27.58;16.00;;;;;;;;;;5080490;28;20411;-60
2023/08/09 08:30:19;;;;;;;23.50;15.52;;;;;;;;;;5082662;28;20411;-60
2023/08/09 08:32:46;;;;;;;24.50;15.50;;;;;;;;;;5080326;28;20416;-61
2023/08/09 08:35:19;;;;;;;21.85;14.43;;;;;;;;;;5082022;28;20495;-61
2023/08/09 08:37:47;;;;;;;25.13;14.63;;;;;;;;;;5081168;28;20417;-60
2023/08/09 08:40:17;;;;;;;19.48;12.98;;;;;;;;;;5082528;28;20440;-63
2023/08/09 08:42:44;;;;;;;21.08;14.32;;;;;;;;;;5084413;28;20501;-64
2023/08/09 08:45:12;;;;;;;19.80;13.80;;;;;;;;;;5081825;28;20422;-65
2023/08/09 08:47:39;;;;;;;19.98;13.70;;;;;;;;;;5084371;28;20478;-63
2023/08/09 08:50:07;;;;;;;21.58;15.15;;;;;;;;;;5083540;28;20840;-63
2023/08/09 08:52:37;;;;;;;27.45;15.35;;;;;;;;;;5084275;28;20497;-62
2023/08/09 08:55:05;;;;;;;21.80;13.65;;;;;;;;;;5083402;28;20446;-64
2023/08/09 08:57:33;;;;;;;20.60;14.13;;;;;;;;;;5080552;28;20488;-62
2023/08/09 09:00:04;;;;;;;19.35;13.57;;;;;;;;;;5086082;28;20446;-62
2023/08/09 09:02:31;;;;;;;18.33;12.23;;;;;;;;;;5077051;28;20861;-59
2023/08/09 09:04:58;;;;;;;15.17;11.97;;;;;;;;;;5081879;28;20579;-59
2023/08/09 09:07:25;;;;;;;19.90;11.68;;;;;;;;;;5080327;28;20518;-59
2023/08/09 09:09:59;;;;;;;15.80;11.50;;;;;;;;;;5083320;28;20495;-58
2023/08/09 09:12:26;;;;;;;16.38;10.18;;;;;;;;;;5078703;28;20519;-57
2023/08/09 09:14:54;;;;;;;13.48;10.27;;;;;;;;;;5081391;28;20442;-55
2023/08/09 09:17:21;;;;;;;12.95;8.80;;;;;;;;;;5080274;28;20415;-63
2023/08/09 09:19:48;;;;;;;14.05;9.55;;;;;;;;;;5083359;28;20465;-63
2023/08/09 09:22:26;;;;;;;12.45;9.70;;;;;;;;;;5077667;28;20411;-62
2023/08/09 09:24:53;;;;;;;13.57;9.50;;;;;;;;;;5079470;28;20442;-62
2023/08/09 09:27:27;;;;;;;10.68;8.38;;;;;;;;;;5080963;28;20473;-60
2023/08/09 09:29:54;;;;;;;13.25;8.48;;;;;;;;;;5079385;28;20499;-58
2023/08/09 09:32:21;;;;;;;10.77;8.25;;;;;;;;;;5078277;28;20415;-60
2023/08/09 09:34:51;;;;;;;10.05;8.32;;;;;;;;;;5079372;28;20419;-60
2023/08/09 09:37:23;;;;;;;11.10;8.85;;;;;;;;;;5078123;28;20483;-62
2023/08/09 09:39:51;;;;;;;9.68;7.68;;;;;;;;;;5083307;28;20407;-61
2023/08/09 09:42:19;;;;;;;10.02;7.70;;;;;;;;;;5078859;28;20423;-61
2023/08/09 09:44:47;;;;;;;10.60;7.35;;;;;;;;;;5086025;28;20481;-60
2023/08/09 09:47:15;;;;;;;9.13;7.30;;;;;;;;;;5087230;28;20433;-60
2023/08/09 09:49:52;;;;;;;8.23;6.30;;;;;;;;;;5083728;28;20495;-60
2023/08/09 09:52:19;;;;;;;9.00;7.07;;;;;;;;;;5076541;28;20405;-59
2023/08/09 09:54:48;;;;;;;10.95;7.28;;;;;;;;;;5082972;28;20451;-61
2023/08/09 09:57:15;;;;;;;10.03;7.23;;;;;;;;;;5079669;28;20412;-59
2023/08/09 09:59:42;;;;;;;9.77;7.10;;;;;;;;;;5079602;28;20884;-62
2023/08/09 10:02:11;;;;;;;10.48;7.25;;;;;;;;;;5082861;28;20408;-66
2023/08/09 10:04:38;;;;;;;7.68;6.80;;;;;;;;;;5079882;28;20422;-63
2023/08/09 10:07:05;;;;;;;8.93;7.20;;;;;;;;;;5078690;28;20412;-63
2023/08/09 10:09:33;;;;;;;8.83;6.80;;;;;;;;;;5079929;28;20467;-63
2023/08/09 10:12:03;;;;;;;8.02;6.55;;;;;;;;;;5081882;28;20419;-63
2023/08/09 10:14:31;;;;;;;9.77;6.90;;;;;;;;;;5079698;28;20427;-63
2023/08/09 10:16:59;;;;;;;7.95;6.65;;;;;;;;;;5079606;28;20409;-62
2023/08/09 10:19:29;;;;;;;7.63;6.28;;;;;;;;;;5078987;28;20419;-61
2023/08/09 10:21:56;;;;;;;7.90;5.88;;;;;;;;;;5079674;28;20457;-63
2023/08/09 10:24:23;;;;;;;8.33;6.80;;;;;;;;;;5079182;28;20668;-63
2023/08/09 10:26:53;;;;;;;9.02;6.18;;;;;;;;;;5083726;28;20421;-61
2023/08/09 10:29:21;;;;;;;8.43;5.63;;;;;;;;;;5073774;28;20438;-63
2023/08/09 10:31:49;;;;;;;8.55;6.00;;;;;;;;;;5077890;28;20442;-63
2023/08/09 10:34:17;;;;;;;8.88;5.75;;;;;;;;;;5077899;28;20971;-63
2023/08/09 10:36:49;;;;;;;6.38;5.18;;;;;;;;;;5078012;28;20488;-65
2023/08/09 10:39:18;;;;;;;7.15;5.15;;;;;;;;;;5083263;28;20419;-66
2023/08/09 10:41:55;;;;;;;5.43;4.30;;;;;;;;;;5081427;28;20418;-64
2023/08/09 10:44:32;;;;;;;7.13;5.00;;;;;;;;;;5081615;28;20509;-63
2023/08/09 10:47:03;;;;;;;6.57;4.60;;;;;;;;;;5075774;28;20494;-63
2023/08/09 10:49:33;;;;;;;7.97;4.43;;;;;;;;;;5080432;28;20452;-63
2023/08/09 10:52:12;;;;;;;6.22;4.72;;;;;;;;;;5075399;28;20494;-63
2023/08/09 10:54:39;;;;;;;6.13;4.13;;;;;;;;;;5081231;28;20452;-63
2023/08/09 10:57:09;;;;;;;6.97;5.10;;;;;;;;;;5077740;28;20791;-63
2023/08/09 10:59:37;;;;;;;8.45;4.70;;;;;;;;;;5081839;28;20420;-63
2023/08/09 11:02:04;;;;;;;6.68;4.45;;;;;;;;;;5078627;28;20415;-63
2023/08/09 11:04:31;;;;;;;6.80;4.82;;;;;;;;;;5080896;28;20915;-63
2023/08/09 11:06:59;;;;;;;7.85;5.30;;;;;;;;;;5074664;28;20423;-63
2023/08/09 11:09:27;;;;;;;6.47;4.90;;;;;;;;;;5086001;28;20526;-63
2023/08/09 11:11:55;;;;;;;7.43;5.50;;;;;;;;;;5074487;28;20806;-62
2023/08/09 11:14:22;;;;;;;6.53;5.40;;;;;;;;;;5079681;28;20398;-63
2023/08/09 11:16:50;;;;;;;7.28;6.35;;;;;;;;;;5073660;28;20821;-63
2023/08/09 11:19:18;;;;;;;9.25;6.55;;;;;;;;;;5080284;28;20895;-63
2023/08/09 11:21:46;;;;;;;8.82;6.75;;;;;;;;;;5081988;28;20462;-63
2023/08/09 11:24:14;;;;;;;9.75;7.10;;;;;;;;;;5078844;28;20829;-62
2023/08/09 11:26:48;;;;;;;8.73;7.32;;;;;;;;;;5078154;28;20417;-65
2023/08/09 11:29:16;;;;;;;9.70;6.70;;;;;;;;;;5078751;28;20491;-63
2023/08/09 11:31:43;;;;;;;9.88;6.80;;;;;;;;;;5070139;28;20422;-64
2023/08/09 11:34:11;;;;;;;10.25;7.13;;;;;;;;;;5083228;28;20418;-64
2023/08/09 11:36:40;;;;;;;11.45;7.05;;;;;;;;;;5077786;28;20425;-65
2023/08/09 11:39:07;;;;;;;8.85;6.30;;;;;;;;;;5076200;28;20415;-62
2023/08/09 11:41:41;;;;;;;9.95;6.10;;;;;;;;;;5084346;28;20420;-63
2023/08/09 11:44:11;;;;;;;8.48;5.75;;;;;;;;;;5079251;28;20510;-63
2023/08/09 11:46:40;;;;;;;7.32;6.10;;;;;;;;;;5078772;28;20418;-63
2023/08/09 11:49:07;;;;;;;9.63;6.03;;;;;;;;;;5079952;28;20789;-63
2023/08/09 11:51:35;;;;;;;8.30;6.45;;;;;;;;;;5078351;28;20884;-64
2023/08/09 11:54:02;;;;;;;10.40;6.95;;;;;;;;;;5076444;28;20415;-63
2023/08/09 11:56:32;;;;;;;10.60;7.50;;;;;;;;;;5077001;28;20431;-63
2023/08/09 11:59:00;;;;;;;11.60;7.47;;;;;;;;;;5083951;28;20465;-62
2023/08/09 12:01:29;;;;;;;9.65;7.20;;;;;;;;;;5088343;28;20419;-61
2023/08/09 12:03:57;;;;;;;10.27;7.43;;;;;;;;;;5081192;28;20427;-62
2023/08/09 12:06:38;;;;;;;9.60;6.90;;;;;;;;;;5082739;28;20801;-59
2023/08/09 12:09:23;;;;;;;11.90;6.40;;;;;;;;;;5083647;28;20431;-62
2023/08/09 12:11:50;;;;;;;8.85;6.47;;;;;;;;;;5081161;28;20463;-63
2023/08/09 12:14:17;;;;;;;10.02;6.30;;;;;;;;;;5080109;28;20503;-62
2023/08/09 12:16:46;;;;;;;10.02;6.95;;;;;;;;;;5080599;28;20419;-62
2023/08/09 12:19:13;;;;;;;8.93;6.40;;;;;;;;;;5084133;28;20459;-63
2023/08/09 12:21:40;;;;;;;10.88;7.00;;;;;;;;;;5077293;28;20898;-62
2023/08/09 12:24:08;;;;;;;9.07;6.53;;;;;;;;;;5082019;28;21533;-62
2023/08/09 12:26:36;;;;;;;12.05;7.38;;;;;;;;;;5080016;28;20478;-63
2023/08/09 12:29:03;;;;;;;12.07;7.45;;;;;;;;;;5083677;28;20461;-60
2023/08/09 12:31:30;;;;;;;10.63;7.47;;;;;;;;;;5087939;28;20414;-60
2023/08/09 12:33:59;;;;;;;11.30;7.35;;;;;;;;;;5080767;28;20543;-59
2023/08/09 12:36:26;;;;;;;8.87;5.90;;;;;;;;;;5079818;28;20498;-60
2023/08/09 12:38:53;;;;;;;7.18;4.90;;;;;;;;;;5088322;28;20512;-61
2023/08/09 12:41:20;;;;;;;7.93;4.75;;;;;;;;;;5080834;28;20408;-61
2023/08/09 12:43:47;;;;;;;7.45;5.43;;;;;;;;;;5081107;28;20422;-61
2023/08/09 12:46:14;;;;;;;6.20;4.85;;;;;;;;;;5081075;28;20765;-60
2023/08/09 12:48:41;;;;;;;5.72;4.05;;;;;;;;;;5087967;28;20492;-61
2023/08/09 12:51:10;;;;;;;5.45;3.58;;;;;;;;;;5083280;28;20416;-61
2023/08/09 12:53:37;;;;;;;5.90;3.67;;;;;;;;;;5084886;28;20444;-60
2023/08/09 12:56:04;;;;;;;6.23;3.00;;;;;;;;;;5082010;28;20423;-59
2023/08/09 12:58:31;;;;;;;3.60;2.45;;;;;;;;;;5081766;28;20447;-61
2023/08/09 13:00:59;;;;;;;4.47;2.33;;;;;;;;;;5086197;28;20479;-60
2023/08/09 13:03:26;;;;;;;3.63;2.23;;;;;;;;;;5079247;28;20423;-62
2023/08/09 13:05:53;;;;;;;3.28;2.10;;;;;;;;;;5080670;28;20822;-60
2023/08/09 13:08:21;;;;;;;4.03;2.33;;;;;;;;;;5084774;28;20594;-62
2023/08/09 13:10:48;;;;;;;3.15;2.40;;;;;;;;;;5081626;28;21361;-61
2023/08/09 13:13:15;;;;;;;3.33;2.20;;;;;;;;;;5089925;28;20474;-61
2023/08/09 13:15:42;;;;;;;4.45;2.42;;;;;;;;;;5084584;28;20410;-61
2023/08/09 13:18:09;;;;;;;4.23;2.30;;;;;;;;;;5092387;28;20552;-62
2023/08/09 13:20:36;;;;;;;3.55;2.00;;;;;;;;;;5092723;28;20420;-62
2023/08/09 13:23:03;;;;;;;3.10;2.22;;;;;;;;;;5086658;28;20436;-60
2023/08/09 13:25:32;;;;;;;3.00;1.80;;;;;;;;;;5080652;28;20422;-61
2023/08/09 13:28:03;;;;;;;2.83;1.80;;;;;;;;;;5081017;28;20429;-59
2023/08/09 13:30:30;;;;;;;3.28;1.90;;;;;;;;;;5085117;28;20412;-61
2023/08/09 13:32:57;;;;;;;2.23;1.67;;;;;;;;;;5088546;28;20850;-62
2023/08/09 13:35:24;;;;;;;3.47;1.85;;;;;;;;;;5084520;28;20493;-63
2023/08/09 13:37:51;;;;;;;3.33;1.90;;;;;;;;;;5079518;28;20419;-63
2023/08/09 13:40:19;;;;;;;3.00;1.70;;;;;;;;;;5082201;28;20417;-62
2023/08/09 13:42:48;;;;;;;4.70;1.60;;;;;;;;;;5082463;28;20409;-62
2023/08/09 13:45:15;;;;;;;2.53;2.05;;;;;;;;;;5078628;28;20890;-57
2023/08/09 13:47:42;;;;;;;3.30;1.92;;;;;;;;;;5075533;28;20469;-60
2023/08/09 13:50:10;;;;;;;4.85;2.00;;;;;;;;;;5071492;28;20415;-60
2023/08/09 13:52:37;;;;;;;3.47;1.90;;;;;;;;;;5076014;28;20853;-61
2023/08/09 13:55:05;;;;;;;3.58;1.90;;;;;;;;;;5081225;28;20451;-60
2023/08/09 13:57:32;;;;;;;3.33;2.20;;;;;;;;;;5076278;28;20446;-62
2023/08/09 14:00:03;;;;;;;3.28;1.85;;;;;;;;;;5080496;28;20441;-63
2023/08/09 14:02:30;;;;;;;3.30;2.35;;;;;;;;;;5084134;28;20410;-64
2023/08/09 14:04:57;;;;;;;4.13;2.28;;;;;;;;;;5079036;28;20906;-64
2023/08/09 14:07:24;;;;;;;3.50;1.95;;;;;;;;;;5079762;28;20431;-63
2023/08/09 14:09:51;;;;;;;4.30;2.17;;;;;;;;;;5083050;28;20906;-62
2023/08/09 14:12:19;;;;;;;3.22;2.17;;;;;;;;;;5082001;28;20415;-62
2023/08/09 14:14:46;;;;;;;5.20;2.03;;;;;;;;;;5087529;28;20479;-62
2023/08/09 14:17:14;;;;;;;3.55;2.00;;;;;;;;;;5075616;28;20416;-65
2023/08/09 14:19:41;;;;;;;4.82;2.10;;;;;;;;;;5079693;28;20896;-65
2023/08/09 14:22:08;;;;;;;4.60;2.07;;;;;;;;;;5081644;28;20429;-65
2023/08/09 14:24:35;;;;;;;3.55;2.00;;;;;;;;;;5078080;28;20435;-63
2023/08/09 14:27:02;;;;;;;2.85;1.63;;;;;;;;;;5079612;28;20407;-63
2023/08/09 14:29:29;;;;;;;2.92;2.00;;;;;;;;;;5073941;28;20408;-62
2023/08/09 14:31:56;;;;;;;3.40;2.20;;;;;;;;;;5082228;28;20978;-63
2023/08/09 14:34:24;;;;;;;3.30;2.10;;;;;;;;;;5080040;28;20408;-64